Time;durP1;ratioP1;P1;durP2;ratioP2;P2;SDS_P1;SDS_P2;PMS_P1;PMS_P2;Temp;Humidity;BMP_temperature;BMP_pressure;BME280_temperature;BME280_humidity;BME280_pressure;Samples;Min_cycle;Max_cycle;Signal;HPM_P1;HPM_P2
2023/10/03 00:03:09;;;;;;;10.60;3.70;;;;;;;11.28;69.09;99860.92;80974;1289;3012987;-68
2023/10/03 00:05:38;;;;;;;10.90;3.80;;;;;;;11.13;69.73;99859.85;79717;1292;3011770;-64
2023/10/03 00:08:05;;;;;;;11.70;3.40;;;;;;;10.99;70.36;99864.15;78483;1295;3050681;-65
2023/10/03 00:10:33;;;;;;;9.40;3.70;;;;;;;10.87;70.82;99869.58;79584;1295;3013349;-68
2023/10/03 00:13:00;;;;;;;11.90;4.30;;;;;;;10.85;71.07;99869.28;79798;1292;3013247;-67
2023/10/03 00:15:30;;;;;;;9.90;3.70;;;;;;;10.80;71.06;99862.20;77737;1295;3052216;-66
2023/10/03 00:17:59;;;;;;;12.40;3.60;;;;;;;10.68;71.78;99869.54;78533;1291;3050783;-64
2023/10/03 00:20:25;;;;;;;12.90;3.60;;;;;;;10.60;72.08;99866.97;79908;1292;3013339;-67
2023/10/03 00:22:52;;;;;;;10.70;3.90;;;;;;;10.61;72.19;99867.11;79774;1289;3011553;-69
2023/10/03 00:25:26;;;;;;;10.50;3.30;;;;;;;10.54;72.39;99870.64;78567;1295;3052283;-64
2023/10/03 00:27:59;;;;;;;7.80;3.20;;;;;;;10.54;72.77;99868.52;79796;1293;3013180;-70
2023/10/03 00:30:28;;;;;;;7.70;3.00;;;;;;;11.03;71.49;99865.30;78598;1289;3050575;-66
2023/10/03 00:32:57;;;;;;;11.80;3.00;;;;;;;11.31;70.12;99870.44;79910;1288;3011522;-69
2023/10/03 00:35:26;;;;;;;12.00;3.60;;;;;;;11.31;69.85;99868.16;78598;1289;3050822;-64
2023/10/03 00:37:53;;;;;;;13.40;4.20;;;;;;;11.18;70.29;99873.62;79844;1291;3013615;-66
2023/10/03 00:42:50;;;;;;;12.50;4.20;;;;;;;10.82;71.60;99878.80;78539;1292;3054069;-66
2023/10/03 00:45:25;;;;;;;9.10;3.60;;;;;;;10.69;72.42;99881.73;79789;1292;3013823;-69
2023/10/03 00:47:53;;;;;;;10.10;3.60;;;;;;;10.59;72.80;99879.66;78605;1288;3056014;-68
2023/10/03 00:50:25;;;;;;;8.70;3.70;;;;;;;10.54;73.18;99875.20;79970;1292;3012663;-68
2023/10/03 00:52:57;;;;;;;11.50;4.20;;;;;;;10.49;73.33;99875.64;78707;1288;3049525;-67
2023/10/03 00:55:33;;;;;;;7.50;3.50;;;;;;;10.41;73.74;99874.65;79974;1289;3011452;-64
2023/10/03 00:58:06;;;;;;;9.60;3.10;;;;;;;10.37;74.31;99876.97;78442;1295;3053360;-66
2023/10/03 01:00:37;;;;;;;14.10;3.40;;;;;;;10.94;72.78;99876.84;79740;1291;3011510;-63
2023/10/03 01:03:09;;;;;;;10.30;3.70;;;;;;;11.29;70.86;99876.51;78651;1288;3051402;-65
2023/10/03 01:05:36;;;;;;;11.60;4.00;;;;;;;11.22;70.95;99876.34;79786;1292;3011430;-62
2023/10/03 01:08:05;;;;;;;9.90;4.30;;;;;;;11.06;71.21;99879.20;78639;1289;3026451;-69
2023/10/03 01:10:32;;;;;;;13.50;4.20;;;;;;;10.92;71.97;99881.35;79888;1288;3013113;-65
2023/10/03 01:13:12;;;;;;;7.00;3.40;;;;;;;10.79;72.61;99882.58;79760;1289;3011767;-67
2023/10/03 01:15:40;;;;;;;8.90;3.60;;;;;;;10.69;72.96;99881.05;78779;1292;3052863;-66
2023/10/03 01:18:12;;;;;;;7.60;3.30;;;;;;;10.65;73.06;99880.05;80017;1289;3012945;-66
2023/10/03 01:20:48;;;;;;;10.70;4.00;;;;;;;10.45;73.93;99885.29;78570;1289;3056069;-70
2023/10/03 01:23:16;;;;;;;9.90;3.90;;;;;;;10.37;74.20;99883.42;78617;1292;3049131;-67
2023/10/03 01:25:44;;;;;;;9.40;3.10;;;;;;;10.27;75.00;99887.26;79803;1289;3013391;-71
2023/10/03 01:28:11;;;;;;;9.90;3.00;;;;;;;10.29;75.19;99893.65;79722;1289;3013539;-66
2023/10/03 01:30:43;;;;;;;10.50;3.20;;;;;;;10.85;73.52;99885.96;78544;1292;3053476;-62
2023/10/03 01:33:10;;;;;;;8.50;3.30;;;;;;;11.32;71.45;99886.52;79561;1292;3011729;-65
2023/10/03 01:35:38;;;;;;;9.00;3.00;;;;;;;11.23;71.11;99878.59;78603;1288;3050234;-65
2023/10/03 01:38:07;;;;;;;10.50;3.40;;;;;;;11.00;71.98;99885.52;79686;1292;3013048;-63
2023/10/03 01:40:38;;;;;;;10.80;3.70;;;;;;;10.83;72.55;99886.95;79234;1293;3011952;-63
2023/10/03 01:43:04;;;;;;;7.90;3.30;;;;;;;10.64;73.28;99892.89;79813;1295;3013524;-62
2023/10/03 01:45:34;;;;;;;9.70;3.90;;;;;;;10.54;73.80;99887.83;79650;1289;3013740;-61
2023/10/03 01:48:05;;;;;;;13.10;4.50;;;;;;;10.42;74.18;99888.27;78525;1294;3052905;-64
2023/10/03 01:50:34;;;;;;;11.00;3.80;;;;;;;10.34;74.38;99888.51;79703;1289;3011883;-69
2023/10/03 01:53:02;;;;;;;11.60;4.10;;;;;;;10.25;75.10;99888.26;78527;1293;3051646;-69
2023/10/03 01:55:29;;;;;;;8.00;3.40;;;;;;;10.13;75.53;99895.17;79860;1289;3013602;-65
2023/10/03 01:57:55;;;;;;;6.50;2.90;;;;;;;10.12;75.95;99898.38;79649;1289;3013343;-65
2023/10/03 02:02:56;;;;;;;10.50;3.00;;;;;;;10.90;72.99;99891.46;79766;1289;3014516;-65
2023/10/03 02:05:25;;;;;;;9.10;3.60;;;;;;;10.83;73.00;99896.25;78414;1295;3068902;-66
2023/10/03 02:07:52;;;;;;;8.80;3.40;;;;;;;10.68;73.58;99895.25;79862;1289;3013479;-69
2023/10/03 02:10:19;;;;;;;7.00;3.00;;;;;;;10.54;74.08;99891.64;79661;1289;3011573;-59
2023/10/03 02:12:50;;;;;;;10.20;3.30;;;;;;;10.43;74.39;99897.49;78654;1295;3054029;-69
2023/10/03 02:15:21;;;;;;;10.80;3.40;;;;;;;10.27;75.10;99900.05;79725;1294;3012006;-63
2023/10/03 02:17:53;;;;;;;10.90;3.70;;;;;;;10.17;75.62;99902.13;78432;1294;3051453;-62
2023/10/03 02:20:21;;;;;;;8.70;2.90;;;;;;;10.16;75.75;99904.48;79713;1289;3011524;-66
2023/10/03 02:22:53;;;;;;;7.90;2.80;;;;;;;10.05;76.21;99907.47;78647;1295;3068889;-63
2023/10/03 02:25:30;;;;;;;10.60;3.20;;;;;;;10.54;75.18;99906.36;79768;1289;3011506;-66
2023/10/03 02:28:00;;;;;;;10.00;2.90;;;;;;;10.79;73.67;99908.16;78628;1294;3056706;-71
2023/10/03 02:30:26;;;;;;;8.60;3.10;;;;;;;10.73;73.85;99911.16;80191;1288;3011764;-66
2023/10/03 02:32:53;;;;;;;14.30;3.70;;;;;;;10.57;74.27;99915.48;79791;1288;3011537;-66
2023/10/03 02:35:24;;;;;;;9.20;3.80;;;;;;;10.35;75.16;99919.05;78426;1294;3051887;-67
2023/10/03 02:37:52;;;;;;;8.90;3.20;;;;;;;10.18;75.86;99923.45;79628;1295;3012988;-67
2023/10/03 02:40:26;;;;;;;11.40;3.60;;;;;;;10.07;76.65;99920.52;78330;1290;3028082;-62
2023/10/03 02:42:56;;;;;;;12.40;3.70;;;;;;;9.90;77.55;99920.64;79301;1289;3011643;-67
2023/10/03 02:45:25;;;;;;;8.80;3.40;;;;;;;9.87;78.01;99924.86;79895;1289;3013756;-60
2023/10/03 02:47:55;;;;;;;15.90;4.80;;;;;;;10.26;77.17;99923.04;79395;1289;3011836;-66
2023/10/03 02:50:26;;;;;;;19.50;6.50;;;;;;;10.60;75.52;99925.48;79821;1290;3013759;-67
2023/10/03 02:52:59;;;;;;;22.00;7.00;;;;;;;10.34;75.84;99927.04;78745;1289;3049617;-65
2023/10/03 02:55:26;;;;;;;23.90;7.00;;;;;;;10.14;76.57;99931.33;79961;1289;3011820;-61
2023/10/03 02:57:54;;;;;;;11.80;5.10;;;;;;;9.97;77.35;99927.15;78519;1293;3052060;-63
2023/10/03 03:00:22;;;;;;;14.60;5.90;;;;;;;9.81;78.10;99930.38;80012;1293;3013890;-66
2023/10/03 03:02:50;;;;;;;13.80;5.20;;;;;;;9.66;79.01;99936.03;79795;1288;3013617;-67
2023/10/03 03:05:24;;;;;;;16.70;5.80;;;;;;;9.65;79.39;99935.20;78840;1288;3049651;-69
2023/10/03 03:07:58;;;;;;;15.90;4.80;;;;;;;10.14;78.03;99934.16;79873;1289;3012889;-67
2023/10/03 03:10:29;;;;;;;16.20;4.70;;;;;;;10.36;76.61;99938.11;78573;1293;3049761;-65
2023/10/03 03:12:55;;;;;;;12.00;4.40;;;;;;;10.27;76.54;99937.69;79818;1292;3013162;-64
2023/10/03 03:15:23;;;;;;;14.40;4.70;;;;;;;10.17;76.91;99934.17;79791;1291;3012200;-65
2023/10/03 03:17:51;;;;;;;12.50;4.40;;;;;;;9.92;77.80;99941.39;78498;1291;3051992;-70
2023/10/03 03:20:18;;;;;;;11.80;4.00;;;;;;;9.82;78.25;99943.61;79763;1289;3020857;-59
2023/10/03 03:22:47;;;;;;;8.50;3.30;;;;;;;9.69;78.75;99946.54;79814;1294;3011779;-64
2023/10/03 03:25:26;;;;;;;10.50;3.80;;;;;;;9.56;79.39;99943.52;78626;1294;3049946;-67
2023/10/03 03:27:56;;;;;;;12.30;3.80;;;;;;;9.56;79.95;99949.30;78660;1293;3053399;-64
2023/10/03 03:30:33;;;;;;;12.50;4.00;;;;;;;10.01;78.22;99947.95;79819;1294;3011482;-64
2023/10/03 03:33:04;;;;;;;11.20;4.00;;;;;;;10.16;77.24;99944.03;78455;1288;3069799;-66
2023/10/03 03:35:37;;;;;;;12.00;4.10;;;;;;;10.05;77.35;99945.27;79824;1289;3011774;-64
2023/10/03 03:38:07;;;;;;;12.40;4.20;;;;;;;9.85;78.14;99946.63;78501;1288;3057042;-68
2023/10/03 03:40:36;;;;;;;8.20;3.70;;;;;;;9.72;78.60;99944.48;79754;1289;3011737;-67
2023/10/03 03:43:05;;;;;;;11.30;4.10;;;;;;;9.45;79.91;99948.05;78501;1289;3025191;-68
2023/10/03 03:45:32;;;;;;;10.70;4.30;;;;;;;9.37;80.41;99948.24;79828;1292;3011940;-62
2023/10/03 03:48:00;;;;;;;7.90;2.60;;;;;;;9.25;81.04;99953.75;79756;1294;3011855;-67
2023/10/03 03:50:29;;;;;;;10.00;3.20;;;;;;;9.69;80.02;99946.38;78698;1288;3067590;-69
2023/10/03 03:52:58;;;;;;;13.00;3.40;;;;;;;10.03;78.28;99945.59;79884;1288;3014770;-66
2023/10/03 03:55:29;;;;;;;9.10;3.50;;;;;;;9.99;77.96;99951.73;79341;1290;3011840;-74
2023/10/03 03:57:57;;;;;;;8.70;3.50;;;;;;;9.84;78.33;99960.02;79847;1289;3011638;-66
2023/10/03 04:00:28;;;;;;;9.50;3.40;;;;;;;9.67;78.97;99962.58;79277;1292;3011662;-69
2023/10/03 04:02:59;;;;;;;9.90;3.80;;;;;;;9.41;80.11;99956.49;79895;1292;3013784;-71
2023/10/03 04:05:30;;;;;;;9.50;3.80;;;;;;;9.32;80.50;99961.30;78990;1295;3052555;-62
2023/10/03 04:07:58;;;;;;;7.90;2.60;;;;;;;9.21;81.23;99964.59;79838;1292;3011773;-66
2023/10/03 04:10:26;;;;;;;5.60;3.10;;;;;;;9.78;79.80;99965.54;78485;1293;3069920;-63
2023/10/03 04:12:54;;;;;;;11.30;3.90;;;;;;;9.98;78.19;99970.84;79827;1289;3013768;-74
2023/10/03 04:15:21;;;;;;;7.50;3.50;;;;;;;9.94;78.03;99977.17;79868;1289;3011943;-63
2023/10/03 04:17:49;;;;;;;6.60;3.50;;;;;;;9.66;78.98;99977.10;78514;1292;3053692;-60
2023/10/03 04:20:32;;;;;;;8.90;3.40;;;;;;;9.59;79.19;99972.20;79743;1292;3011580;-70
2023/10/03 04:22:59;;;;;;;16.20;4.70;;;;;;;9.57;79.40;99980.02;78598;1289;3052322;-68
2023/10/03 04:25:26;;;;;;;12.20;4.40;;;;;;;9.43;79.76;99982.59;79717;1293;3013762;-71
2023/10/03 04:27:54;;;;;;;8.50;3.60;;;;;;;9.29;80.77;99982.39;79709;1292;3013065;-74
2023/10/03 04:30:26;;;;;;;9.00;3.60;;;;;;;9.72;79.73;99984.51;78669;1294;3048390;-64
2023/10/03 04:32:54;;;;;;;14.60;4.70;;;;;;;10.10;77.83;99989.34;79831;1289;3011978;-65
2023/10/03 04:35:23;;;;;;;11.40;4.40;;;;;;;10.07;77.46;99993.34;78743;1289;3049304;-68
2023/10/03 04:37:51;;;;;;;10.30;4.60;;;;;;;10.14;76.97;99991.05;79889;1292;3013490;-65
2023/10/03 04:40:22;;;;;;;12.50;4.40;;;;;;;9.92;77.58;99997.04;79367;1293;3013666;-67
2023/10/03 04:42:49;;;;;;;12.30;4.20;;;;;;;9.82;77.93;99994.58;79922;1294;3012751;-63
2023/10/03 04:45:18;;;;;;;8.20;4.40;;;;;;;9.62;79.18;99990.98;79827;1289;3012034;-69
2023/10/03 04:47:47;;;;;;;9.90;4.40;;;;;;;9.55;79.44;99989.19;78693;1288;3048883;-73
2023/10/03 04:50:18;;;;;;;9.60;3.30;;;;;;;9.44;80.13;100000.23;79879;1289;3016014;-67
2023/10/03 04:52:48;;;;;;;12.00;3.90;;;;;;;9.88;79.05;100003.02;78645;1295;3053148;-64
2023/10/03 04:55:16;;;;;;;11.60;4.50;;;;;;;10.16;77.21;100008.12;79877;1288;3011691;-68
2023/10/03 04:57:45;;;;;;;9.30;3.90;;;;;;;10.15;76.76;100006.94;78702;1293;3026073;-69
2023/10/03 05:00:15;;;;;;;11.40;4.70;;;;;;;10.04;77.05;100007.13;79960;1289;3013132;-71
2023/10/03 05:02:46;;;;;;;8.70;4.40;;;;;;;9.87;78.02;100007.25;78685;1289;3050041;-67
2023/10/03 05:05:20;;;;;;;15.00;5.50;;;;;;;9.85;78.02;100009.26;79965;1289;3011906;-69
2023/10/03 05:07:52;;;;;;;15.60;5.10;;;;;;;9.79;78.46;100009.75;78689;1292;3049682;-63
2023/10/03 05:10:23;;;;;;;8.00;4.30;;;;;;;9.70;78.61;100019.63;79871;1293;3011752;-64
2023/10/03 05:12:52;;;;;;;9.60;3.80;;;;;;;9.75;78.82;100019.21;78355;1294;3053353;-71
2023/10/03 05:15:18;;;;;;;11.20;5.20;;;;;;;10.22;77.58;100026.88;79680;1295;3013781;-71
2023/10/03 05:17:46;;;;;;;14.60;6.00;;;;;;;10.54;75.71;100029.49;79752;1289;3011726;-64
2023/10/03 05:20:17;;;;;;;12.70;5.10;;;;;;;10.60;75.14;100029.02;78616;1294;3048343;-66
2023/10/03 05:22:46;;;;;;;14.60;5.10;;;;;;;10.46;75.28;100037.24;79875;1294;3011971;-64
2023/10/03 05:25:17;;;;;;;13.20;5.50;;;;;;;10.32;75.76;100039.33;78613;1289;3049862;-68
2023/10/03 05:27:45;;;;;;;8.00;4.20;;;;;;;10.32;75.85;100036.19;79868;1292;3011409;-63
2023/10/03 05:30:14;;;;;;;10.10;4.00;;;;;;;10.33;75.47;100045.62;78713;1291;3026534;-62
2023/10/03 05:32:42;;;;;;;13.90;4.50;;;;;;;10.22;76.04;100048.59;79745;1292;3012946;-62
2023/10/03 05:35:12;;;;;;;7.60;4.30;;;;;;;10.23;76.11;100046.27;79217;1289;3011733;-62
2023/10/03 05:37:42;;;;;;;11.70;4.30;;;;;;;10.19;76.30;100052.92;79708;1289;3012948;-59
2023/10/03 05:40:15;;;;;;;11.70;3.60;;;;;;;10.75;74.24;100053.63;78771;1288;3053337;-65
2023/10/03 05:42:45;;;;;;;6.00;3.40;;;;;;;11.21;72.04;100059.48;79762;1289;3011440;-65
2023/10/03 05:45:13;;;;;;;10.80;3.90;;;;;;;11.31;71.33;100061.05;78668;1289;3050990;-64
2023/10/03 05:47:46;;;;;;;10.30;3.50;;;;;;;11.17;71.57;100064.56;79922;1292;3013775;-60
2023/10/03 05:50:21;;;;;;;6.90;3.40;;;;;;;11.22;71.28;100064.51;78725;1293;3050987;-66
2023/10/03 05:52:50;;;;;;;8.50;3.30;;;;;;;11.12;71.42;100067.50;79440;1288;3011705;-63
2023/10/03 05:55:17;;;;;;;13.40;3.90;;;;;;;10.94;71.67;100062.27;79892;1289;3020739;-64
2023/10/03 05:57:44;;;;;;;8.60;3.80;;;;;;;10.84;72.19;100061.77;79794;1288;3011944;-63
2023/10/03 06:00:16;;;;;;;10.80;3.80;;;;;;;10.76;72.17;100063.95;78525;1293;3026524;-63
2023/10/03 06:02:50;;;;;;;8.40;4.10;;;;;;;10.69;72.20;100068.88;79697;1289;3011625;-65
2023/10/03 06:05:17;;;;;;;11.00;4.40;;;;;;;10.64;72.59;100070.52;78506;1288;3052274;-65
2023/10/03 06:07:44;;;;;;;11.80;3.70;;;;;;;10.65;72.79;100067.67;79797;1288;3018478;-66
2023/10/03 06:10:12;;;;;;;14.20;4.50;;;;;;;10.66;72.94;100076.36;79825;1292;3013322;-62
2023/10/03 06:12:42;;;;;;;13.10;3.60;;;;;;;10.77;72.06;100077.55;78648;1289;3048846;-64
2023/10/03 06:15:09;;;;;;;11.90;4.20;;;;;;;10.83;71.86;100073.41;79743;1289;3013243;-66
2023/10/03 06:17:35;;;;;;;7.10;3.90;;;;;;;10.83;71.40;100078.10;79849;1292;3011895;-62
2023/10/03 06:20:06;;;;;;;10.30;3.40;;;;;;;10.88;71.04;100080.84;78742;1288;3027057;-70
2023/10/03 06:22:35;;;;;;;14.70;4.60;;;;;;;10.80;71.25;100087.02;80242;1293;3011872;-64
2023/10/03 06:25:04;;;;;;;14.00;4.80;;;;;;;10.58;72.43;100087.98;78591;1289;3051050;-66
2023/10/03 06:27:31;;;;;;;10.70;3.60;;;;;;;10.63;73.00;100092.95;79796;1289;3013557;-64
2023/10/03 06:29:57;;;;;;;10.30;4.20;;;;;;;11.26;71.14;100089.52;79766;1289;3011798;-65
2023/10/03 06:32:25;;;;;;;13.70;4.20;;;;;;;11.79;68.76;100090.15;78742;1294;3049746;-63
2023/10/03 06:34:52;;;;;;;12.70;4.50;;;;;;;12.03;67.68;100088.52;79923;1292;3020521;-62
2023/10/03 06:37:19;;;;;;;13.80;4.20;;;;;;;12.05;66.89;100090.85;79784;1289;3013611;-65
2023/10/03 06:39:47;;;;;;;10.00;4.00;;;;;;;11.99;67.05;100095.94;78601;1293;3028755;-63
2023/10/03 06:42:13;;;;;;;8.40;4.30;;;;;;;11.88;67.13;100100.20;79888;1291;3012835;-63
2023/10/03 06:44:40;;;;;;;10.40;4.00;;;;;;;11.65;67.87;100107.08;79708;1289;3014159;-61
2023/10/03 06:47:09;;;;;;;9.50;4.10;;;;;;;11.62;67.50;100105.33;78747;1293;3029471;-66
2023/10/03 06:49:35;;;;;;;8.50;3.90;;;;;;;11.53;67.75;100110.73;81197;1290;3013670;-67
2023/10/03 06:52:03;;;;;;;10.30;3.90;;;;;;;11.52;67.71;100108.70;79765;1296;3011646;-65
2023/10/03 06:54:31;;;;;;;8.50;4.30;;;;;;;11.59;67.63;100107.40;78619;1297;3051326;-67
2023/10/03 06:56:58;;;;;;;9.00;4.10;;;;;;;11.70;67.70;100116.13;79240;1294;3013032;-64
2023/10/03 06:59:24;;;;;;;13.50;5.00;;;;;;;11.69;67.78;100116.14;79233;1298;3013163;-63
2023/10/03 07:01:52;;;;;;;22.60;4.60;;;;;;;11.77;68.14;100121.19;77989;1300;3028456;-65
2023/10/03 07:04:20;;;;;;;11.30;4.60;;;;;;;11.93;68.06;100122.25;79282;1297;3013738;-67
2023/10/03 07:06:46;;;;;;;12.70;4.20;;;;;;;11.93;67.97;100118.87;79289;1299;3013559;-64
2023/10/03 07:09:16;;;;;;;15.90;4.50;;;;;;;11.89;67.80;100127.56;78213;1300;3053171;-68
2023/10/03 07:11:47;;;;;;;10.60;4.30;;;;;;;11.92;67.25;100128.07;79565;1294;3013665;-65
2023/10/03 07:14:16;;;;;;;8.80;5.00;;;;;;;11.91;67.64;100124.96;78378;1295;3049327;-68
2023/10/03 07:16:44;;;;;;;16.50;4.30;;;;;;;11.97;67.59;100130.63;79275;1294;3013116;-63
2023/10/03 07:19:11;;;;;;;8.90;4.60;;;;;;;12.10;67.35;100124.64;79368;1297;3011675;-65
2023/10/03 07:21:38;;;;;;;15.40;4.60;;;;;;;12.22;66.52;100119.76;78310;1298;3053054;-65
2023/10/03 07:24:08;;;;;;;9.50;4.00;;;;;;;12.18;66.43;100122.80;79361;1294;3012970;-68
2023/10/03 07:26:37;;;;;;;14.40;4.90;;;;;;;12.32;66.57;100126.40;78861;1295;3013350;-68
2023/10/03 07:29:04;;;;;;;9.90;3.70;;;;;;;12.51;65.83;100130.21;79388;1297;3020619;-65
2023/10/03 07:31:34;;;;;;;18.20;4.40;;;;;;;12.57;64.85;100128.79;79477;1294;3011588;-66
2023/10/03 07:34:01;;;;;;;8.50;4.00;;;;;;;12.79;64.32;100122.29;78008;1300;3049315;-65
2023/10/03 07:36:28;;;;;;;9.60;3.30;;;;;;;12.87;62.87;100126.52;79299;1300;3013055;-63
2023/10/03 07:38:55;;;;;;;17.20;4.40;;;;;;;12.95;62.93;100132.92;79192;1299;3011823;-65
2023/10/03 07:41:23;;;;;;;9.00;3.70;;;;;;;12.98;63.02;100135.52;78178;1298;3028468;-65
2023/10/03 07:43:52;;;;;;;12.50;3.90;;;;;;;13.03;62.42;100134.36;79530;1296;3014117;-66
2023/10/03 07:46:22;;;;;;;9.40;3.90;;;;;;;13.15;61.98;100130.86;79544;1294;3011671;-67
2023/10/03 07:48:52;;;;;;;17.60;4.00;;;;;;;13.26;60.96;100133.14;78439;1295;3051096;-67
2023/10/03 07:51:20;;;;;;;8.80;3.40;;;;;;;13.38;60.62;100133.70;79403;1300;3013780;-62
2023/10/03 07:53:51;;;;;;;13.20;4.20;;;;;;;13.44;60.08;100142.45;78969;1294;3012047;-63
2023/10/03 07:56:25;;;;;;;8.20;3.70;;;;;;;13.54;59.86;100139.88;79379;1300;3013425;-67
2023/10/03 07:58:53;;;;;;;9.30;3.60;;;;;;;13.68;60.16;100136.90;78080;1298;3051292;-63
2023/10/03 08:01:26;;;;;;;12.10;3.40;;;;;;;13.62;57.91;100139.23;79373;1295;3013173;-61
2023/10/03 08:03:56;;;;;;;10.50;3.60;;;;;;;13.47;58.26;100142.80;78187;1300;3051623;-70
2023/10/03 08:06:27;;;;;;;9.80;3.70;;;;;;;13.67;57.86;100135.77;79368;1300;3012860;-66
2023/10/03 08:08:59;;;;;;;12.70;3.70;;;;;;;13.87;56.97;100142.97;78152;1299;3052032;-67
2023/10/03 08:11:31;;;;;;;8.70;3.70;;;;;;;13.96;56.29;100141.85;79520;1298;3011646;-66
2023/10/03 08:14:01;;;;;;;6.50;3.30;;;;;;;14.01;56.17;100139.80;78161;1298;3050918;-63
2023/10/03 08:16:28;;;;;;;12.00;3.30;;;;;;;14.14;55.93;100135.63;79353;1295;3011904;-67
2023/10/03 08:18:57;;;;;;;11.00;3.70;;;;;;;14.22;55.43;100136.99;79635;1294;3011632;-64
2023/10/03 08:21:29;;;;;;;8.00;3.40;;;;;;;14.46;55.06;100129.83;78273;1298;3050023;-68
2023/10/03 08:23:56;;;;;;;11.10;3.00;;;;;;;14.72;54.57;100128.68;79399;1297;3011452;-68
2023/10/03 08:26:28;;;;;;;14.30;3.40;;;;;;;14.87;53.60;100134.34;78050;1297;3052231;-66
2023/10/03 08:29:04;;;;;;;9.10;3.20;;;;;;;14.85;53.19;100139.24;79341;1297;3011811;-65
2023/10/03 08:31:32;;;;;;;7.30;2.60;;;;;;;14.89;52.62;100139.48;78103;1298;3052132;-66
2023/10/03 08:33:59;;;;;;;6.40;2.80;;;;;;;14.85;51.99;100133.78;79502;1294;3013517;-66
2023/10/03 08:36:28;;;;;;;9.10;3.10;;;;;;;15.01;51.57;100129.50;79535;1300;3011808;-65
2023/10/03 08:39:10;;;;;;;9.00;3.10;;;;;;;15.12;51.41;100129.11;78366;1298;3050126;-67
2023/10/03 08:41:48;;;;;;;10.40;3.30;;;;;;;15.21;50.88;100126.17;78441;1295;3052793;-69
2023/10/03 08:44:16;;;;;;;15.30;3.60;;;;;;;15.46;51.28;100123.20;78099;1300;3054649;-65
2023/10/03 08:46:49;;;;;;;11.00;3.20;;;;;;;15.46;50.24;100120.02;79753;1301;3018528;-65
2023/10/03 08:49:19;;;;;;;10.00;3.10;;;;;;;15.59;49.86;100123.17;78326;1295;3056292;-65
2023/10/03 08:51:46;;;;;;;13.20;3.10;;;;;;;15.66;48.87;100121.77;79371;1294;3013081;-71
2023/10/03 08:54:13;;;;;;;7.70;2.90;;;;;;;15.52;48.46;100120.88;79390;1300;3013052;-65
2023/10/03 08:56:42;;;;;;;9.80;2.80;;;;;;;15.60;48.65;100120.46;78314;1297;3052819;-64
2023/10/03 08:59:09;;;;;;;10.00;2.70;;;;;;;15.59;47.97;100128.49;79610;1297;3012954;-67
2023/10/03 09:01:38;;;;;;;14.30;3.10;;;;;;;15.69;47.50;100124.10;79307;1294;3011655;-62
2023/10/03 09:04:08;;;;;;;6.10;2.90;;;;;;;15.91;47.39;100119.88;78332;1300;3055857;-64
2023/10/03 09:06:38;;;;;;;8.40;2.80;;;;;;;16.09;47.03;100111.88;79442;1300;3013488;-67
2023/10/03 09:09:13;;;;;;;6.90;2.50;;;;;;;16.11;46.54;100110.46;78288;1298;3053191;-71
2023/10/03 09:11:42;;;;;;;9.70;2.30;;;;;;;16.19;46.07;100115.01;79457;1298;3012728;-65
2023/10/03 09:14:29;;;;;;;7.10;2.70;;;;;;;16.31;45.86;100114.33;78165;1300;3054225;-70
2023/10/03 09:16:59;;;;;;;12.80;2.90;;;;;;;16.27;45.36;100113.00;78608;1300;3054689;-66
2023/10/03 09:19:44;;;;;;;11.00;2.80;;;;;;;16.36;45.23;100108.99;79980;1295;3012831;-68
2023/10/03 09:22:15;;;;;;;11.20;2.70;;;;;;;16.25;44.88;100102.90;78875;1296;3052000;-64
2023/10/03 09:24:44;;;;;;;8.10;3.30;;;;;;;16.20;44.95;100106.45;79723;1294;3012092;-68
2023/10/03 09:27:17;;;;;;;9.80;2.50;;;;;;;16.39;44.71;100098.54;78373;1298;3050557;-64
2023/10/03 09:29:45;;;;;;;10.80;2.80;;;;;;;16.56;44.63;100097.39;79299;1299;3011679;-65
2023/10/03 09:32:13;;;;;;;5.30;2.30;;;;;;;16.79;44.50;100092.84;78217;1300;3050763;-69
2023/10/03 09:34:40;;;;;;;7.30;2.90;;;;;;;16.99;44.06;100097.90;79481;1297;3019179;-66
2023/10/03 09:37:07;;;;;;;5.00;2.20;;;;;;;17.12;43.28;100096.85;79487;1300;3011910;-69
2023/10/03 09:39:39;;;;;;;7.20;2.60;;;;;;;16.99;43.01;100101.59;78287;1299;3029523;-70
2023/10/03 09:42:16;;;;;;;7.30;2.30;;;;;;;16.76;43.21;100101.55;79525;1297;3011635;-64
2023/10/03 09:44:51;;;;;;;10.70;3.10;;;;;;;16.84;43.37;100097.41;78363;1300;3050051;-67
2023/10/03 09:47:27;;;;;;;11.70;2.60;;;;;;;17.24;43.41;100093.45;79068;1295;3011656;-67
2023/10/03 09:50:08;;;;;;;5.90;1.90;;;;;;;17.33;42.76;100095.81;79038;1294;3011818;-65
2023/10/03 09:52:37;;;;;;;9.30;2.70;;;;;;;17.11;43.02;100094.26;78441;1300;3053561;-67
2023/10/03 09:55:17;;;;;;;8.10;2.60;;;;;;;17.26;42.85;100093.48;79449;1300;3013572;-69
2023/10/03 09:57:46;;;;;;;7.30;2.10;;;;;;;17.12;42.93;100091.56;78207;1298;3054038;-66
2023/10/03 10:00:25;;;;;;;6.20;2.30;;;;;;;16.86;43.33;100088.75;79358;1300;3013651;-62
2023/10/03 10:02:55;;;;;;;4.30;2.10;;;;;;;17.09;42.94;100083.64;78014;1300;3056875;-68
2023/10/03 10:05:23;;;;;;;6.50;2.20;;;;;;;17.18;42.23;100082.08;79405;1300;3014035;-67
2023/10/03 10:08:19;;;;;;;7.30;2.10;;;;;;;17.43;42.63;100073.38;78193;1300;3027622;-69
2023/10/03 10:11:09;;;;;;;9.10;2.10;;;;;;;17.61;42.13;100077.68;78041;1302;3049333;-67
2023/10/03 10:13:41;;;;;;;6.30;2.00;;;;;;;17.45;42.51;100077.13;78142;1300;3053311;-64
2023/10/03 10:16:07;;;;;;;6.80;2.40;;;;;;;17.49;43.06;100076.14;79526;1295;3011793;-65
2023/10/03 10:18:44;;;;;;;7.80;2.50;;;;;;;17.40;42.45;100075.71;78767;1300;3026359;-62
2023/10/03 10:21:39;;;;;;;11.90;2.80;;;;;;;17.43;42.04;100067.02;78564;1300;3050259;-64
2023/10/03 10:24:16;;;;;;;6.50;2.30;;;;;;;17.55;41.95;100076.67;79003;1297;3057454;-69
2023/10/03 10:26:48;;;;;;;9.40;2.40;;;;;;;17.85;41.59;100070.59;78825;1299;3049688;-63
2023/10/03 10:29:19;;;;;;;9.20;2.50;;;;;;;17.60;41.34;100078.56;79936;1296;3011533;-66
2023/10/03 10:31:57;;;;;;;7.80;2.70;;;;;;;17.52;42.05;100078.73;78728;1300;3050049;-66
2023/10/03 10:34:40;;;;;;;9.00;2.30;;;;;;;17.60;41.91;100074.36;78411;1300;3052478;-67
2023/10/03 10:37:09;;;;;;;9.10;2.20;;;;;;;17.62;42.55;100078.76;78212;1301;3052183;-62
2023/10/03 10:40:21;;;;;;;9.00;2.70;;;;;;;17.67;42.59;100070.02;79413;1300;3014448;-70
2023/10/03 10:43:07;;;;;;;6.40;2.50;;;;;;;17.97;41.77;100062.50;78021;1295;3058529;-64
2023/10/03 10:45:38;;;;;;;7.80;3.00;;;;;;;17.89;41.85;100060.88;78222;1295;3049487;-59
2023/10/03 10:48:05;;;;;;;11.60;2.80;;;;;;;17.86;41.87;100064.98;79317;1300;3011821;-65
2023/10/03 10:51:01;;;;;;;6.80;2.50;;;;;;;17.91;41.54;100066.53;79164;1298;3013033;-71
2023/10/03 10:53:43;;;;;;;12.90;3.50;;;;;;;17.93;41.62;100065.66;78188;1300;3052027;-64
2023/10/03 10:56:11;;;;;;;10.00;2.20;;;;;;;18.20;40.72;100061.34;78096;1300;3052939;-70
2023/10/03 10:58:52;;;;;;;6.70;2.20;;;;;;;18.17;40.13;100063.20;79559;1299;3013290;-66
2023/10/03 11:01:21;;;;;;;6.80;2.40;;;;;;;17.93;40.09;100064.61;78117;1300;3056276;-68
2023/10/03 11:03:48;;;;;;;8.30;2.60;;;;;;;18.16;40.11;100059.05;79412;1295;3016057;-66
2023/10/03 11:06:17;;;;;;;10.00;3.00;;;;;;;18.42;39.27;100057.38;79228;1295;3013126;-65
2023/10/03 11:08:47;;;;;;;9.20;2.90;;;;;;;18.61;39.52;100060.73;78147;1298;3052461;-67
2023/10/03 11:11:14;;;;;;;9.00;3.60;;;;;;;18.62;39.16;100061.34;79488;1300;3015362;-69
2023/10/03 11:13:46;;;;;;;8.10;2.40;;;;;;;18.92;38.77;100058.16;79444;1300;3011646;-67
2023/10/03 11:16:21;;;;;;;7.20;2.60;;;;;;;19.11;38.21;100060.45;78200;1299;3056781;-64
2023/10/03 11:18:50;;;;;;;8.90;3.10;;;;;;;19.09;38.29;100057.98;77963;1300;3048828;-67
2023/10/03 11:21:16;;;;;;;13.30;3.00;;;;;;;18.92;38.76;100065.05;79408;1295;3013696;-63
2023/10/03 11:24:15;;;;;;;9.00;2.20;;;;;;;18.79;39.21;100061.24;79677;1295;3011609;-64
2023/10/03 11:26:53;;;;;;;7.50;2.80;;;;;;;18.57;39.13;100057.41;78277;1300;3053092;-65
2023/10/03 11:29:37;;;;;;;14.00;2.70;;;;;;;18.80;39.23;100055.59;78208;1294;3069340;-68
2023/10/03 11:32:06;;;;;;;8.60;3.30;;;;;;;18.64;38.71;100062.80;78317;1296;3052008;-63